Time;durP1;ratioP1;P1;durP2;ratioP2;P2;SDS_P1;SDS_P2;PMS_P1;PMS_P2;Temp;Humidity;BMP_temperature;BMP_pressure;BME280_temperature;BME280_humidity;BME280_pressure;Samples;Min_cycle;Max_cycle;Signal;HPM_P1;HPM_P2
2022/06/21 00:00:04;;;;;;;22.42;15.98;;;19.50;99.90;;;;;;5074201;28;20028;-55
2022/06/21 00:02:33;;;;;;;18.90;16.52;;;19.50;99.90;;;;;;5074062;28;20059;-55
2022/06/21 00:04:59;;;;;;;18.63;16.73;;;19.50;99.90;;;;;;5074238;28;20051;-55
2022/06/21 00:07:28;;;;;;;17.65;15.27;;;19.50;99.90;;;;;;5074077;28;20040;-55
2022/06/21 00:09:55;;;;;;;17.73;15.65;;;19.40;99.90;;;;;;5074274;28;20031;-55
2022/06/21 00:12:21;;;;;;;16.95;15.05;;;19.50;99.90;;;;;;5074109;28;20052;-55
2022/06/21 00:14:48;;;;;;;17.85;15.98;;;19.40;99.90;;;;;;5073918;28;20666;-55
2022/06/21 00:17:17;;;;;;;18.88;15.80;;;19.40;99.90;;;;;;5074280;28;20033;-55
2022/06/21 00:19:44;;;;;;;17.33;15.48;;;19.40;99.90;;;;;;5074126;28;20024;-55
2022/06/21 00:22:14;;;;;;;18.33;16.02;;;19.40;99.90;;;;;;5073933;28;20024;-56
2022/06/21 00:24:40;;;;;;;17.95;16.15;;;19.40;99.90;;;;;;5074117;28;20024;-55
2022/06/21 00:27:15;;;;;;;18.38;15.98;;;19.30;99.90;;;;;;5073986;28;20029;-55
2022/06/21 00:29:41;;;;;;;19.20;16.58;;;19.40;99.90;;;;;;5073924;28;20020;-56
2022/06/21 00:32:11;;;;;;;18.77;15.82;;;19.30;99.90;;;;;;5073855;28;20032;-55
2022/06/21 00:34:37;;;;;;;17.92;16.10;;;19.30;99.90;;;;;;5053872;28;20075;-55
2022/06/21 00:37:03;;;;;;;18.33;16.35;;;19.30;99.90;;;;;;5053761;28;20467;-56
2022/06/21 00:39:29;;;;;;;17.52;15.43;;;19.20;99.90;;;;;;5060719;28;20317;-55
2022/06/21 00:42:01;;;;;;;18.10;16.17;;;19.20;99.90;;;;;;5075543;28;20090;-56
2022/06/21 00:44:40;;;;;;;19.17;16.63;;;19.20;99.90;;;;;;5077682;28;20437;-55
2022/06/21 00:47:19;;;;;;;17.98;16.02;;;19.20;99.90;;;;;;5077762;28;20439;-55
2022/06/21 00:50:12;;;;;;;19.38;16.02;;;19.20;99.90;;;;;;5077406;28;20033;-56
2022/06/21 00:52:46;;;;;;;18.77;16.27;;;19.20;99.90;;;;;;5076627;28;20094;-56
2022/06/21 00:55:23;;;;;;;19.70;16.48;;;19.10;99.90;;;;;;5077498;28;20025;-55
2022/06/21 00:57:54;;;;;;;22.27;16.48;;;19.00;99.90;;;;;;5077080;28;20490;-55
2022/06/21 01:00:37;;;;;;;17.73;15.77;;;19.00;99.90;;;;;;5077445;28;20033;-55
2022/06/21 01:03:11;;;;;;;19.98;17.80;;;19.00;99.90;;;;;;5077375;28;20032;-55
2022/06/21 01:05:39;;;;;;;18.23;16.42;;;19.00;99.90;;;;;;5077093;28;20065;-55
2022/06/21 01:08:07;;;;;;;19.70;16.15;;;19.10;99.90;;;;;;5077211;28;20470;-55
2022/06/21 01:10:33;;;;;;;19.55;16.02;;;19.00;99.90;;;;;;5077035;28;20078;-55
2022/06/21 01:13:11;;;;;;;17.60;15.80;;;18.90;99.90;;;;;;5077010;28;20028;-55
2022/06/21 01:15:40;;;;;;;17.80;15.90;;;18.90;99.90;;;;;;5077114;28;20443;-55
2022/06/21 01:18:08;;;;;;;22.85;17.60;;;18.80;99.90;;;;;;5076924;28;20617;-55
2022/06/21 01:20:36;;;;;;;19.13;16.02;;;18.80;99.90;;;;;;5076996;28;20055;-56
2022/06/21 01:23:17;;;;;;;16.98;14.57;;;18.80;99.90;;;;;;5077017;28;20024;-55
2022/06/21 01:25:52;;;;;;;17.80;15.93;;;18.80;99.90;;;;;;5077043;28;20028;-56
2022/06/21 01:28:18;;;;;;;18.80;15.90;;;18.80;99.90;;;;;;5076749;28;20096;-55
2022/06/21 01:30:49;;;;;;;18.17;16.30;;;18.80;99.90;;;;;;5076838;28;20032;-55
2022/06/21 01:33:26;;;;;;;26.42;20.08;;;18.80;99.90;;;;;;5076515;28;20021;-55
2022/06/21 01:35:55;;;;;;;22.77;17.25;;;18.80;99.90;;;;;;5076932;28;20036;-55
2022/06/21 01:38:45;;;;;;;20.15;15.77;;;18.80;99.90;;;;;;5076673;28;20024;-55
2022/06/21 01:41:16;;;;;;;22.45;16.65;;;18.90;99.90;;;;;;5056499;28;20021;-55
2022/06/21 01:43:47;;;;;;;21.38;16.77;;;18.90;99.90;;;;;;5056577;28;20033;-55
2022/06/21 01:46:19;;;;;;;20.48;17.58;;;18.90;99.90;;;;;;5056724;28;20069;-55
2022/06/21 01:48:50;;;;;;;22.33;19.67;;;18.90;99.90;;;;;;5056436;28;20052;-55
2022/06/21 01:51:23;;;;;;;26.00;19.10;;;18.80;99.90;;;;;;5056255;28;20040;-55
2022/06/21 01:53:50;;;;;;;28.25;19.90;;;18.80;99.90;;;;;;5055645;28;20128;-55
2022/06/21 01:56:22;;;;;;;24.27;19.45;;;18.80;99.90;;;;;;5056271;28;20029;-56
2022/06/21 01:59:18;;;;;;;21.95;19.23;;;18.80;99.90;;;;;;5056362;28;20494;-55
2022/06/21 02:02:07;;;;;;;23.08;19.05;;;18.70;99.90;;;;;;5052772;28;20045;-55
2022/06/21 02:04:40;;;;;;;22.40;19.00;;;18.70;99.90;;;;;;5056230;28;20041;-55
2022/06/21 02:07:10;;;;;;;21.17;18.83;;;18.60;99.90;;;;;;5054897;28;20036;-55
2022/06/21 02:10:14;;;;;;;22.13;19.05;;;18.60;99.90;;;;;;5056302;28;20037;-56
2022/06/21 02:12:48;;;;;;;24.05;18.77;;;18.60;99.90;;;;;;5056120;28;20029;-55
2022/06/21 02:15:48;;;;;;;24.83;20.75;;;18.60;99.90;;;;;;5055727;28;20127;-55
2022/06/21 02:18:15;;;;;;;;;;;18.60;99.90;;;;;;5034232;28;20056;-55
2022/06/21 02:20:42;;;;;;;25.98;19.70;;;18.60;99.90;;;;;;5055848;28;19908;-55
2022/06/21 02:23:12;;;;;;;26.20;19.05;;;18.60;99.90;;;;;;5055768;28;20029;-56
2022/06/21 02:25:41;;;;;;;23.33;18.15;;;18.60;99.90;;;;;;5055708;28;20057;-56
2022/06/21 02:28:11;;;;;;;26.92;18.73;;;18.60;99.90;;;;;;5055648;28;20033;-56
2022/06/21 02:30:39;;;;;;;25.65;18.75;;;18.50;99.90;;;;;;5055456;28;20125;-55
2022/06/21 02:33:09;;;;;;;21.55;17.55;;;18.60;99.90;;;;;;5062881;28;20024;-56
2022/06/21 02:35:49;;;;;;;22.17;17.42;;;18.60;99.90;;;;;;5075525;28;20028;-56
2022/06/21 02:38:26;;;;;;;19.45;17.48;;;18.50;99.90;;;;;;5075524;28;20032;-55
2022/06/21 02:41:20;;;;;;;19.95;16.40;;;18.50;99.90;;;;;;5075317;28;20036;-56
2022/06/21 02:43:52;;;;;;;19.52;17.08;;;18.50;99.90;;;;;;5075290;28;20065;-56
2022/06/21 02:46:30;;;;;;;21.48;16.83;;;18.50;99.90;;;;;;5075151;28;20059;-56
2022/06/21 02:49:03;;;;;;;19.90;16.52;;;18.50;99.90;;;;;;5074179;28;20405;-55
2022/06/21 02:51:38;;;;;;;19.35;16.50;;;18.40;99.90;;;;;;5074850;28;20067;-56
2022/06/21 02:54:16;;;;;;;21.45;18.05;;;18.40;99.90;;;;;;5075055;28;20055;-55
2022/06/21 02:56:54;;;;;;;21.38;17.25;;;18.40;99.90;;;;;;5075240;28;20028;-56
2022/06/21 02:59:20;;;;;;;19.55;17.15;;;18.40;99.90;;;;;;5075040;28;20501;-56
2022/06/21 03:01:54;;;;;;;19.80;17.35;;;18.30;99.90;;;;;;5075087;28;20036;-56
2022/06/21 03:04:34;;;;;;;21.90;17.85;;;18.40;99.90;;;;;;5074021;28;20032;-56
2022/06/21 03:07:02;;;;;;;23.67;17.07;;;18.30;99.90;;;;;;5075073;28;20051;-56
2022/06/21 03:09:28;;;;;;;23.65;17.55;;;18.40;99.90;;;;;;5074905;28;20025;-55
2022/06/21 03:12:05;;;;;;;24.67;17.85;;;18.40;99.90;;;;;;5074938;28;20390;-56
2022/06/21 03:14:34;;;;;;;20.85;16.98;;;18.30;99.90;;;;;;5074880;28;20017;-56
2022/06/21 03:17:03;;;;;;;21.48;17.20;;;18.30;99.90;;;;;;5074817;28;20025;-56
2022/06/21 03:19:44;;;;;;;19.58;17.23;;;18.30;99.90;;;;;;5074713;28;20031;-56
2022/06/21 03:22:25;;;;;;;20.80;17.67;;;18.30;99.90;;;;;;5074827;28;20092;-56
2022/06/21 03:24:54;;;;;;;19.63;16.90;;;18.30;99.90;;;;;;5074581;28;20035;-56
2022/06/21 03:27:23;;;;;;;27.42;17.52;;;18.30;99.90;;;;;;5074376;28;20474;-55
2022/06/21 03:29:49;;;;;;;19.33;16.77;;;18.30;99.90;;;;;;5074737;28;20135;-56
2022/06/21 03:32:15;;;;;;;22.67;16.95;;;18.30;99.90;;;;;;5074319;28;20119;-55
2022/06/21 03:34:42;;;;;;;18.70;16.08;;;18.40;99.90;;;;;;5074523;28;20111;-56
2022/06/21 03:37:08;;;;;;;19.60;16.13;;;18.40;99.90;;;;;;5074590;28;20038;-56
2022/06/21 03:42:24;;;;;;;19.90;16.60;;;18.40;99.90;;;;;;5074332;28;20472;-56
2022/06/21 03:45:08;;;;;;;26.85;17.80;;;18.40;99.90;;;;;;5074474;28;20032;-56
2022/06/21 03:47:39;;;;;;;23.70;17.13;;;18.40;99.90;;;;;;5074301;28;20024;-56
2022/06/21 03:50:10;;;;;;;22.77;17.15;;;18.40;99.90;;;;;;5074198;28;20031;-56
2022/06/21 03:52:41;;;;;;;24.23;18.05;;;18.50;99.90;;;;;;5074112;28;20048;-56
2022/06/21 03:55:36;;;;;;;22.30;17.48;;;18.50;99.90;;;;;;5074175;28;20059;-56
2022/06/21 03:58:28;;;;;;;26.88;19.10;;;18.60;99.90;;;;;;5074437;28;20029;-56
2022/06/21 04:01:08;;;;;;;20.35;17.75;;;18.60;99.90;;;;;;5074260;28;20033;-56
2022/06/21 04:03:45;;;;;;;22.05;18.35;;;18.70;99.90;;;;;;5074047;28;20486;-56
2022/06/21 04:06:43;;;;;;;24.33;17.30;;;18.70;99.90;;;;;;5074322;28;20078;-56
2022/06/21 04:09:15;;;;;;;20.23;16.83;;;18.80;99.90;;;;;;5060738;28;20036;-56
2022/06/21 04:11:45;;;;;;;23.75;17.23;;;18.80;99.90;;;;;;5074024;28;20024;-56
2022/06/21 04:14:44;;;;;;;26.38;19.08;;;18.90;99.90;;;;;;5074178;28;20059;-56
2022/06/21 04:17:10;;;;;;;27.15;18.63;;;19.00;99.90;;;;;;5069697;28;20371;-56
2022/06/21 04:19:51;;;;;;;29.10;19.83;;;19.00;99.90;;;;;;5078010;28;20024;-56
2022/06/21 04:22:30;;;;;;;;;;;19.10;99.90;;;;;;5078331;28;20025;-56
2022/06/21 04:24:59;;;;;;;30.10;19.80;;;19.20;99.90;;;;;;5078000;28;20374;-56
2022/06/21 04:27:45;;;;;;;28.90;20.08;;;19.30;99.90;;;;;;5078225;28;20029;-56
2022/06/21 04:30:23;;;;;;;22.02;17.45;;;19.30;99.90;;;;;;5077931;28;20099;-56
2022/06/21 04:33:14;;;;;;;24.00;18.38;;;19.30;99.90;;;;;;5077626;28;20485;-56
2022/06/21 04:35:50;;;;;;;24.65;18.33;;;19.40;99.90;;;;;;5077947;28;20028;-56
2022/06/21 04:38:35;;;;;;;27.42;18.30;;;19.50;99.90;;;;;;5077684;28;20074;-56
2022/06/21 04:41:17;;;;;;;31.55;25.38;;;19.60;99.90;;;;;;5077524;28;20032;-56
2022/06/21 04:44:25;;;;;;;40.15;24.13;;;19.80;99.90;;;;;;5078004;28;20035;-56
2022/06/21 04:47:05;;;;;;;33.00;21.20;;;19.90;99.90;;;;;;4976103;28;20074;-56
2022/06/21 04:49:37;;;;;;;25.43;19.80;;;20.10;99.90;;;;;;4976428;28;20049;-56
2022/06/21 04:52:16;;;;;;;23.85;19.70;;;20.20;99.90;;;;;;4975968;28;22095;-56
2022/06/21 04:54:42;;;;;;;22.40;18.05;;;20.20;99.90;;;;;;4976306;28;20032;-56
2022/06/21 04:57:13;;;;;;;39.00;21.13;;;20.30;99.90;;;;;;4976157;28;20030;-56
2022/06/21 04:59:46;;;;;;;32.90;21.25;;;20.40;99.90;;;;;;4976054;28;20102;-56
2022/06/21 05:02:18;;;;;;;30.42;18.48;;;20.50;99.90;;;;;;4976276;28;20043;-56
2022/06/21 05:04:45;;;;;;;31.60;20.45;;;20.60;99.90;;;;;;4976171;28;20043;-56
2022/06/21 05:07:21;;;;;;;27.25;18.48;;;20.80;99.90;;;;;;4975731;28;20101;-56
2022/06/21 05:09:48;;;;;;;28.95;19.02;;;20.90;99.90;;;;;;4976243;28;20031;-56
2022/06/21 05:12:25;;;;;;;28.38;19.30;;;21.10;99.90;;;;;;4975797;28;20165;-56
2022/06/21 05:14:58;;;;;;;34.17;19.45;;;21.20;99.90;;;;;;4975853;28;20432;-56
2022/06/21 05:17:26;;;;;;;32.35;18.98;;;21.30;99.90;;;;;;5021192;28;20116;-56
2022/06/21 05:19:57;;;;;;;35.83;21.17;;;21.40;99.90;;;;;;5077063;28;20038;-56
2022/06/21 05:22:30;;;;;;;27.75;19.83;;;21.50;99.90;;;;;;5077057;28;20060;-56
2022/06/21 05:25:00;;;;;;;39.58;22.15;;;21.70;99.90;;;;;;5075679;28;20060;-56
2022/06/21 05:27:42;;;;;;;37.35;21.00;;;21.80;99.90;;;;;;5076540;28;20542;-56
2022/06/21 05:30:15;;;;;;;32.30;20.38;;;21.90;99.90;;;;;;5077115;28;20032;-56
2022/06/21 05:32:52;;;;;;;31.02;20.63;;;22.00;99.90;;;;;;5077131;28;20020;-56
2022/06/21 05:35:22;;;;;;;28.88;21.45;;;22.20;99.90;;;;;;5074945;28;20129;-56
2022/06/21 05:37:59;;;;;;;45.60;23.13;;;22.30;99.90;;;;;;5108048;28;20457;-56
2022/06/21 05:40:39;;;;;;;45.97;23.17;;;22.40;99.90;;;;;;5074826;28;20441;-56
2022/06/21 05:43:13;;;;;;;36.13;19.35;;;22.50;99.90;;;;;;5075593;28;20070;-56
2022/06/21 05:45:41;;;;;;;49.72;23.35;;;22.70;99.90;;;;;;5075069;28;20124;-56
2022/06/21 05:48:17;;;;;;;60.03;25.20;;;22.80;99.90;;;;;;5074802;28;20032;-56
2022/06/21 05:50:43;;;;;;;58.05;27.35;;;22.90;99.90;;;;;;5075989;28;20032;-56
2022/06/21 05:53:25;;;;;;;47.83;23.35;;;23.00;99.90;;;;;;5075292;28;20546;-56
2022/06/21 05:55:51;;;;;;;53.08;25.30;;;23.10;99.90;;;;;;5063539;28;20103;-56
2022/06/21 05:58:27;;;;;;;52.78;23.95;;;23.20;99.90;;;;;;5076156;28;20029;-56
2022/06/21 06:01:29;;;;;;;58.42;24.88;;;23.40;99.90;;;;;;5074796;28;20077;-56
2022/06/21 06:04:23;;;;;;;48.35;23.13;;;23.50;99.90;;;;;;5074889;28;20064;-56
2022/06/21 06:06:51;;;;;;;51.13;24.27;;;23.60;99.90;;;;;;5076107;28;20033;-56
2022/06/21 06:09:27;;;;;;;41.95;23.02;;;23.80;99.90;;;;;;5074935;28;20120;-56
2022/06/21 06:12:13;;;;;;;42.70;24.20;;;23.90;99.90;;;;;;5075181;28;20360;-56
2022/06/21 06:14:47;;;;;;;43.92;22.73;;;24.10;99.90;;;;;;5075710;28;20390;-56
2022/06/21 06:17:16;;;;;;;42.08;21.98;;;24.20;99.90;;;;;;5074655;28;20095;-56
2022/06/21 06:20:14;;;;;;;54.85;25.00;;;24.30;99.90;;;;;;5075746;28;20084;-56
2022/06/21 06:23:01;;;;;;;37.10;21.67;;;24.50;99.90;;;;;;5067479;28;20047;-56
2022/06/21 06:25:45;;;;;;;40.00;21.45;;;24.60;99.90;;;;;;5075407;28;20374;-56
2022/06/21 06:28:33;;;;;;;45.45;20.70;;;24.80;99.90;;;;;;5073284;28;20032;-56
2022/06/21 06:31:04;;;;;;;32.72;18.83;;;25.00;99.90;;;;;;5075606;28;20043;-56
2022/06/21 06:33:38;;;;;;;32.58;19.17;;;25.10;99.90;;;;;;5075134;28;20051;-56
2022/06/21 06:36:16;;;;;;;32.97;19.92;;;25.30;99.90;;;;;;5075445;28;20024;-56
2022/06/21 06:38:42;;;;;;;31.90;18.55;;;25.50;99.90;;;;;;5075332;28;20100;-56
2022/06/21 06:41:23;;;;;;;36.03;18.15;;;25.60;99.90;;;;;;5074615;28;20545;-56
2022/06/21 06:44:01;;;;;;;35.15;17.85;;;25.70;99.90;;;;;;5074145;28;20066;-56
2022/06/21 06:46:31;;;;;;;29.10;16.20;;;25.90;99.90;;;;;;5074710;28;20029;-56
2022/06/21 06:49:23;;;;;;;31.50;16.38;;;26.10;97.90;;;;;;5075185;28;20099;-56
2022/06/21 06:52:00;;;;;;;26.92;15.07;;;26.30;99.40;;;;;;5075104;28;20051;-57
2022/06/21 06:54:36;;;;;;;25.42;15.52;;;26.50;99.00;;;;;;5074866;28;20657;-56
2022/06/21 06:57:29;;;;;;;26.75;16.00;;;26.70;99.80;;;;;;5074542;28;20475;-56
2022/06/21 06:59:58;;;;;;;29.77;16.20;;;26.90;99.20;;;;;;5033050;28;20070;-57
2022/06/21 07:02:36;;;;;;;28.80;14.43;;;27.10;95.50;;;;;;5075123;28;20164;-56
2022/06/21 07:05:31;;;;;;;26.40;15.63;;;27.30;92.60;;;;;;5071888;28;20043;-56
2022/06/21 07:08:25;;;;;;;31.80;16.50;;;27.50;90.70;;;;;;5066844;28;20466;-57
2022/06/21 07:10:53;;;;;;;24.63;16.17;;;27.70;92.50;;;;;;5037147;28;20047;-57
2022/06/21 07:13:20;;;;;;;25.85;15.25;;;28.00;85.50;;;;;;5073351;28;20031;-56
2022/06/21 07:15:51;;;;;;;30.60;14.45;;;28.20;91.30;;;;;;5073137;28;20431;-57
2022/06/21 07:18:34;;;;;;;33.47;15.98;;;28.50;79.90;;;;;;5073578;28;20028;-57
2022/06/21 07:21:00;;;;;;;27.73;15.85;;;28.60;75.40;;;;;;5073789;28;20024;-57
2022/06/21 07:23:29;;;;;;;33.40;15.70;;;28.80;69.10;;;;;;5073985;28;20028;-57
2022/06/21 07:26:07;;;;;;;21.85;13.05;;;28.90;68.60;;;;;;5073866;28;20406;-57
2022/06/21 07:28:56;;;;;;;26.98;13.35;;;29.10;67.30;;;;;;5074414;28;20029;-57
2022/06/21 07:31:25;;;;;;;30.67;16.58;;;29.30;65.40;;;;;;5073442;28;20027;-57
2022/06/21 07:34:25;;;;;;;22.88;14.77;;;29.40;65.40;;;;;;5073536;28;20236;-56
2022/06/21 07:37:18;;;;;;;27.55;14.27;;;29.70;64.50;;;;;;5063510;28;20041;-57
2022/06/21 07:39:50;;;;;;;34.17;15.43;;;29.80;63.50;;;;;;5073762;28;20024;-57
2022/06/21 07:42:22;;;;;;;31.48;16.05;;;30.00;61.30;;;;;;5068587;28;20381;-57
2022/06/21 07:45:10;;;;;;;56.67;20.48;;;30.10;61.70;;;;;;5074164;28;20047;-57
2022/06/21 07:47:39;;;;;;;46.88;21.60;;;30.40;62.60;;;;;;5073821;28;20040;-57
2022/06/21 07:50:16;;;;;;;41.80;19.58;;;30.60;61.50;;;;;;5073019;28;20028;-57
2022/06/21 07:53:07;;;;;;;24.02;10.85;;;30.80;60.10;;;;;;5072803;28;20128;-57
2022/06/21 07:55:41;;;;;;;36.65;15.15;;;30.90;56.40;;;;;;5073528;28;20033;-56
2022/06/21 07:58:18;;;;;;;51.53;21.40;;;31.10;58.70;;;;;;5073595;28;20017;-56
2022/06/21 08:06:41;;;;;;;40.60;17.48;;;31.40;54.60;;;;;;5072604;28;20068;-57
2022/06/21 08:09:40;;;;;;;44.05;22.13;;;30.90;57.60;;;;;;5082062;28;20035;-57
2022/06/21 08:12:08;;;;;;;44.45;22.75;;;31.60;56.90;;;;;;5069300;28;20075;-56
2022/06/21 08:14:34;;;;;;;50.38;25.02;;;31.60;56.80;;;;;;5071116;28;20134;-56
2022/06/21 08:17:19;;;;;;;44.85;23.20;;;31.90;55.50;;;;;;5073739;28;20031;-56
2022/06/21 08:20:00;;;;;;;33.55;18.25;;;32.10;54.40;;;;;;5074583;28;20090;-56
2022/06/21 08:22:47;;;;;;;30.80;15.57;;;32.00;53.60;;;;;;5073691;28;20115;-56
2022/06/21 08:25:30;;;;;;;35.70;19.88;;;32.40;54.20;;;;;;5071860;28;20028;-56
2022/06/21 08:28:16;;;;;;;37.10;19.35;;;32.50;54.10;;;;;;5072960;28;20110;-56
2022/06/21 08:30:58;;;;;;;33.40;17.20;;;32.50;53.80;;;;;;5066681;28;20033;-56
2022/06/21 08:33:34;;;;;;;33.65;15.27;;;32.60;53.20;;;;;;5073474;28;20470;-56
2022/06/21 08:36:01;;;;;;;23.52;12.35;;;32.70;51.60;;;;;;5072452;28;20382;-56
2022/06/21 08:38:45;;;;;;;21.05;11.52;;;33.00;52.20;;;;;;5072624;28;20032;-56
2022/06/21 08:41:52;;;;;;;24.92;11.32;;;33.20;50.70;;;;;;5071790;28;20359;-56
2022/06/21 08:44:49;;;;;;;16.08;10.18;;;33.60;55.10;;;;;;5073467;28;20781;-56
2022/06/21 08:47:42;;;;;;;21.17;10.57;;;33.90;49.70;;;;;;5071282;28;20033;-56
2022/06/21 08:50:17;;;;;;;31.88;13.57;;;33.80;49.20;;;;;;5066093;28;20028;-56
2022/06/21 08:53:17;;;;;;;32.20;12.70;;;33.10;50.70;;;;;;5070340;28;20090;-56
2022/06/21 08:55:52;;;;;;;17.20;9.25;;;33.60;48.30;;;;;;5072647;28;20028;-56
2022/06/21 08:58:36;;;;;;;20.73;9.32;;;33.90;46.60;;;;;;5070005;28;20037;-56
2022/06/21 09:01:07;;;;;;;13.38;6.60;;;33.70;46.00;;;;;;5071595;28;20089;-56
2022/06/21 09:03:42;;;;;;;17.33;8.68;;;33.80;45.90;;;;;;5074557;28;20622;-56
2022/06/21 09:06:38;;;;;;;15.23;8.48;;;33.30;45.80;;;;;;5076196;28;20037;-56
2022/06/21 09:09:19;;;;;;;15.38;8.88;;;33.80;49.20;;;;;;5075026;28;20035;-56
2022/06/21 09:12:09;;;;;;;17.35;8.48;;;34.40;45.10;;;;;;5076578;28;20490;-56
2022/06/21 09:14:50;;;;;;;12.63;7.45;;;34.40;46.70;;;;;;5076637;28;20036;-56
2022/06/21 09:17:56;;;;;;;14.73;7.35;;;34.40;45.90;;;;;;5071187;28;20036;-56
2022/06/21 09:20:26;;;;;;;9.55;6.30;;;34.60;44.60;;;;;;5069903;28;20037;-56
2022/06/21 09:23:41;;;;;;;10.00;7.63;;;34.50;48.60;;;;;;5075496;28;20094;-55
2022/06/21 09:26:16;;;;;;;13.52;9.00;;;34.40;47.60;;;;;;5029407;28;20052;-56
2022/06/21 09:28:57;;;;;;;17.85;8.80;;;34.50;46.40;;;;;;5077107;28;20028;-56
2022/06/21 09:31:44;;;;;;;24.88;10.32;;;34.30;44.70;;;;;;5079482;28;20032;-56
2022/06/21 09:34:23;;;;;;;24.52;9.68;;;34.50;44.60;;;;;;5075870;28;20025;-56
2022/06/21 09:37:17;;;;;;;19.02;8.38;;;34.30;46.30;;;;;;5075323;28;20685;-56
2022/06/21 09:39:49;;;;;;;19.92;9.30;;;34.30;45.40;;;;;;5074431;28;20032;-56
2022/06/21 09:42:42;;;;;;;19.17;10.30;;;34.60;45.70;;;;;;5074871;28;20502;-56
2022/06/21 09:45:25;;;;;;;19.85;10.00;;;34.80;44.00;;;;;;5075307;28;20478;-56
2022/06/21 09:48:18;;;;;;;24.75;12.50;;;34.80;44.00;;;;;;5076205;28;20033;-56
2022/06/21 09:51:09;;;;;;;22.08;10.90;;;35.00;43.30;;;;;;5074188;28;20087;-56
2022/06/21 09:53:42;;;;;;;17.40;9.55;;;35.00;45.80;;;;;;5076186;28;20405;-56
2022/06/21 09:56:14;;;;;;;20.58;10.43;;;35.20;48.60;;;;;;5076885;28;20040;-56
2022/06/21 09:59:12;;;;;;;21.05;11.10;;;35.40;44.00;;;;;;5076841;28;20664;-56
2022/06/21 10:02:03;;;;;;;20.65;11.45;;;35.10;45.90;;;;;;5059776;28;20524;-56
2022/06/21 10:04:42;;;;;;;19.90;10.38;;;35.20;44.70;;;;;;5076873;28;20024;-56
2022/06/21 10:07:17;;;;;;;23.30;11.38;;;35.80;45.00;;;;;;5076483;28;20029;-55
2022/06/21 10:09:49;;;;;;;21.92;11.55;;;35.30;44.10;;;;;;5075577;28;20033;-56
2022/06/21 10:12:41;;;;;;;16.75;10.32;;;35.20;46.80;;;;;;5076589;28;20036;-56
2022/06/21 10:15:28;;;;;;;21.88;10.30;;;35.50;47.30;;;;;;5076192;28;20081;-56
2022/06/21 10:18:15;;;;;;;19.88;10.27;;;35.50;45.10;;;;;;5076646;28;20033;-56
2022/06/21 10:21:03;;;;;;;23.00;10.05;;;35.80;42.80;;;;;;5076420;28;20090;-56
2022/06/21 10:23:28;;;;;;;18.85;9.77;;;35.70;41.60;;;;;;5075636;28;20036;-56
2022/06/21 10:26:31;;;;;;;15.82;7.90;;;35.60;43.80;;;;;;5075772;28;20563;-56
2022/06/21 10:29:11;;;;;;;13.18;7.68;;;35.80;45.50;;;;;;5075150;28;20029;-56
2022/06/21 10:32:18;;;;;;;27.92;11.00;;;36.20;45.70;;;;;;5074884;28;20036;-56
2022/06/21 10:35:16;;;;;;;10.02;7.07;;;36.40;44.00;;;;;;5058177;28;20039;-55
2022/06/21 10:38:13;;;;;;;25.02;8.30;;;36.50;40.80;;;;;;5072607;28;20013;-56
2022/06/21 10:41:03;;;;;;;13.52;7.18;;;36.40;42.90;;;;;;5072952;28;20101;-56
2022/06/21 10:43:51;;;;;;;10.82;6.90;;;36.70;42.60;;;;;;5075898;28;20055;-56
2022/06/21 10:46:29;;;;;;;19.75;8.75;;;37.00;42.80;;;;;;5073839;28;20116;-56
2022/06/21 10:49:22;;;;;;;15.63;7.07;;;36.50;41.20;;;;;;5075851;28;20107;-56
2022/06/21 10:52:23;;;;;;;15.23;6.90;;;36.30;42.10;;;;;;5074989;28;20032;-57
2022/06/21 10:55:20;;;;;;;16.25;7.00;;;36.40;42.00;;;;;;5067362;28;20052;-56
2022/06/21 10:58:15;;;;;;;20.15;7.25;;;36.70;42.30;;;;;;5072244;28;20020;-56
2022/06/21 11:04:05;;;;;;;22.75;9.45;;;36.70;40.40;;;;;;5074708;28;20528;-56
2022/06/21 11:06:38;;;;;;;;;;;36.90;41.80;;;;;;5073898;28;20378;-56
2022/06/21 11:09:08;;;;;;;16.90;8.00;;;36.90;42.20;;;;;;5074110;28;19909;-56
2022/06/21 11:11:55;;;;;;;10.63;6.38;;;36.90;41.80;;;;;;5074526;28;20032;-56
2022/06/21 11:14:35;;;;;;;13.32;7.05;;;37.10;41.50;;;;;;5074563;28;20082;-55
2022/06/21 11:17:31;;;;;;;8.85;6.43;;;37.00;40.10;;;;;;5074010;28;20024;-56
2022/06/21 11:20:14;;;;;;;13.82;7.47;;;37.10;40.40;;;;;;5074519;28;20032;-56
2022/06/21 11:23:05;;;;;;;14.68;8.38;;;37.00;41.90;;;;;;5074930;28;20493;-56
2022/06/21 11:26:07;;;;;;;18.55;7.70;;;36.70;41.60;;;;;;5073706;28;20027;-56
2022/06/21 11:28:45;;;;;;;12.40;7.75;;;36.70;43.50;;;;;;5074337;28;20044;-56
2022/06/21 11:31:24;;;;;;;19.30;7.63;;;36.60;40.30;;;;;;5074329;28;20474;-56
2022/06/21 11:34:08;;;;;;;18.35;7.85;;;36.60;41.30;;;;;;5074293;28;20458;-56
2022/06/21 11:36:43;;;;;;;15.93;6.97;;;36.60;42.80;;;;;;5074185;28;20538;-56
2022/06/21 11:39:34;;;;;;;14.93;8.35;;;36.60;41.60;;;;;;5073851;28;20386;-56
2022/06/21 11:42:45;;;;;;;12.98;7.22;;;36.40;41.60;;;;;;5073839;28;20154;-56
2022/06/21 11:45:42;;;;;;;16.17;6.97;;;36.10;42.70;;;;;;5069065;28;20033;-56
2022/06/21 11:48:33;;;;;;;16.73;8.10;;;36.10;43.20;;;;;;5073693;28;20021;-55
2022/06/21 11:51:11;;;;;;;18.40;8.88;;;35.90;43.30;;;;;;5074509;28;20397;-56
2022/06/21 11:53:54;;;;;;;13.68;7.30;;;35.40;43.00;;;;;;5074065;28;20076;-55
2022/06/21 11:56:53;;;;;;;13.77;7.38;;;35.30;43.90;;;;;;5074212;28;20029;-56
2022/06/21 11:59:22;;;;;;;16.42;7.93;;;34.80;44.40;;;;;;5068823;28;20032;-56
2022/06/21 12:02:16;;;;;;;13.68;7.30;;;34.60;46.50;;;;;;5073752;28;20035;-55
2022/06/21 12:04:51;;;;;;;17.17;7.63;;;34.70;48.50;;;;;;5076073;28;20035;-55
2022/06/21 12:07:34;;;;;;;15.02;7.28;;;34.90;47.00;;;;;;5073540;28;20021;-55
2022/06/21 12:10:16;;;;;;;10.23;6.40;;;35.20;46.10;;;;;;5068377;28;20051;-56
2022/06/21 12:12:57;;;;;;;8.50;5.70;;;35.40;44.40;;;;;;5072856;28;20375;-55
2022/06/21 12:15:26;;;;;;;14.63;8.32;;;35.20;42.80;;;;;;5070355;28;20040;-55
2022/06/21 12:17:59;;;;;;;21.25;9.43;;;35.50;44.70;;;;;;5070646;28;20057;-55
2022/06/21 12:20:44;;;;;;;15.82;8.52;;;35.80;43.20;;;;;;5053692;28;20036;-55
2022/06/21 12:23:44;;;;;;;11.10;7.10;;;35.90;47.00;;;;;;5069535;28;20029;-55
2022/06/21 12:26:14;;;;;;;11.07;7.93;;;36.00;44.20;;;;;;5053607;28;20021;-55
2022/06/21 12:28:41;;;;;;;16.20;6.25;;;35.80;43.40;;;;;;5068181;28;20023;-55
2022/06/21 12:31:23;;;;;;;20.63;7.32;;;36.10;42.30;;;;;;5073262;28;20535;-56
2022/06/21 12:33:56;;;;;;;20.70;8.40;;;36.20;43.40;;;;;;5071288;28;20036;-55
2022/06/21 12:36:41;;;;;;;17.02;7.80;;;36.50;43.10;;;;;;5073211;28;20029;-55
2022/06/21 12:39:15;;;;;;;10.75;7.07;;;36.30;45.20;;;;;;5070510;28;20474;-55
2022/06/21 12:41:50;;;;;;;14.32;6.32;;;36.30;44.20;;;;;;5072865;28;20383;-55
2022/06/21 12:45:03;;;;;;;12.27;6.65;;;35.30;43.80;;;;;;5074155;28;20352;-55
2022/06/21 12:47:56;;;;;;;10.93;6.07;;;34.60;45.40;;;;;;5054277;28;20033;-55
2022/06/21 12:50:51;;;;;;;14.05;6.50;;;34.80;46.10;;;;;;5049883;28;20036;-55
2022/06/21 12:53:50;;;;;;;12.40;5.65;;;34.70;45.60;;;;;;5044534;28;20045;-55
2022/06/21 12:56:53;;;;;;;12.32;6.38;;;35.30;46.80;;;;;;5046744;28;20441;-56
2022/06/21 12:59:55;;;;;;;12.75;5.90;;;35.20;46.00;;;;;;5046511;28;20172;-55
2022/06/21 13:02:39;;;;;;;13.70;6.72;;;35.30;43.90;;;;;;5043534;28;20132;-55
2022/06/21 13:05:31;;;;;;;15.15;6.88;;;35.30;43.00;;;;;;5044848;28;20041;-55
2022/06/21 13:08:22;;;;;;;12.40;6.55;;;35.50;43.60;;;;;;5038590;28;20491;-55
2022/06/21 13:11:25;;;;;;;11.90;7.13;;;35.70;44.60;;;;;;5042966;28;20545;-55
2022/06/21 13:14:24;;;;;;;11.98;6.70;;;35.70;45.80;;;;;;5042254;28;20114;-55
2022/06/21 13:17:11;;;;;;;20.40;8.13;;;35.50;44.30;;;;;;5042447;28;20033;-55
2022/06/21 13:20:00;;;;;;;16.33;6.65;;;34.70;45.80;;;;;;5072865;28;20471;-55
2022/06/21 13:22:43;;;;;;;10.90;6.95;;;34.50;46.50;;;;;;5074281;28;20064;-55
2022/06/21 13:25:09;;;;;;;21.25;6.75;;;35.00;46.20;;;;;;5074722;28;20021;-55
2022/06/21 13:27:41;;;;;;;14.73;7.32;;;35.10;46.60;;;;;;5074710;28;20062;-55
2022/06/21 13:30:33;;;;;;;13.73;6.35;;;35.50;46.20;;;;;;5075770;28;20040;-55
2022/06/21 13:33:29;;;;;;;13.35;6.75;;;35.50;45.70;;;;;;5076240;28;20040;-55
2022/06/21 13:36:11;;;;;;;12.00;6.65;;;35.50;44.00;;;;;;5077033;28;20058;-55
2022/06/21 13:38:54;;;;;;;37.60;16.60;;;35.10;47.80;;;;;;5076457;28;20074;-55
2022/06/21 13:44:51;;;;;;;24.67;8.57;;;34.00;45.80;;;;;;5074085;28;20032;-55
2022/06/21 13:47:37;;;;;;;9.70;6.35;;;34.20;46.70;;;;;;5073403;28;20040;-55